Time;durP1;ratioP1;P1;durP2;ratioP2;P2;SDS_P1;SDS_P2;PMS_P1;PMS_P2;Temp;Humidity;BMP_temperature;BMP_pressure;BME280_temperature;BME280_humidity;BME280_pressure;Samples;Min_cycle;Max_cycle;Signal;HPM_P1;HPM_P2
2023/12/06 00:01:01;;;;;;;;;;;19.20;48.80;;;;;;8356579;28;20028;-55
2023/12/06 00:05:02;;;;;;;1.60;0.60;;;19.20;49.30;;;;;;8355288;28;19951;-55
2023/12/06 00:09:03;;;;;;;0.88;0.57;;;19.10;48.70;;;;;;8355396;28;20045;-55
2023/12/06 00:13:03;;;;;;;1.58;0.50;;;19.10;48.80;;;;;;8356016;28;20491;-53
2023/12/06 00:17:04;;;;;;;0.50;0.30;;;19.10;48.80;;;;;;8355538;28;20035;-54
2023/12/06 00:21:05;;;;;;;0.85;0.85;;;19.10;48.80;;;;;;8355879;28;20100;-56
2023/12/06 00:25:06;;;;;;;1.23;0.60;;;19.10;48.70;;;;;;8355564;28;20074;-55
2023/12/06 00:29:06;;;;;;;0.55;0.52;;;19.10;48.70;;;;;;8359487;28;20025;-56
2023/12/06 00:33:07;;;;;;;0.80;0.60;;;19.10;48.80;;;;;;8366751;28;20044;-54
2023/12/06 00:37:08;;;;;;;0.73;0.50;;;19.10;48.80;;;;;;8367871;28;20029;-54
2023/12/06 00:41:08;;;;;;;2.53;0.50;;;19.10;48.80;;;;;;8336101;28;20034;-54
2023/12/06 00:45:09;;;;;;;2.40;0.70;;;19.10;48.80;;;;;;8331226;28;20041;-54
2023/12/06 00:49:11;;;;;;;2.90;0.70;;;19.00;48.90;;;;;;8331276;28;20407;-53
2023/12/06 00:53:12;;;;;;;0.75;0.40;;;19.00;48.80;;;;;;8331140;28;20030;-54
2023/12/06 00:57:12;;;;;;;1.65;0.50;;;19.00;48.80;;;;;;8344676;28;20052;-53
2023/12/06 01:01:13;;;;;;;3.92;0.85;;;19.00;48.80;;;;;;8364743;28;20095;-54
2023/12/06 01:05:14;;;;;;;1.65;0.60;;;18.90;48.80;;;;;;8364974;28;20435;-53
2023/12/06 01:09:15;;;;;;;2.08;0.65;;;18.90;48.80;;;;;;8364565;28;20065;-50
2023/12/06 01:13:16;;;;;;;2.85;0.73;;;18.90;48.80;;;;;;8364462;28;20071;-52
2023/12/06 01:17:17;;;;;;;1.00;0.50;;;18.90;48.90;;;;;;8364572;28;20033;-50
2023/12/06 01:21:17;;;;;;;0.40;0.40;;;18.80;48.90;;;;;;8364155;28;20652;-52
2023/12/06 01:25:18;;;;;;;0.50;0.30;;;18.80;49.00;;;;;;8364066;28;20478;-51
2023/12/06 01:29:19;;;;;;;1.48;0.50;;;18.90;49.00;;;;;;8362813;28;20025;-52
2023/12/06 01:33:19;;;;;;;0.52;0.52;;;18.80;49.00;;;;;;8364129;28;20040;-52
2023/12/06 01:37:20;;;;;;;0.40;0.40;;;18.80;49.00;;;;;;8363834;28;20028;-52
2023/12/06 01:41:21;;;;;;;1.85;0.47;;;18.80;49.00;;;;;;8363749;28;20040;-51
2023/12/06 01:45:21;;;;;;;1.65;0.40;;;18.80;49.10;;;;;;8363583;28;20725;-51
2023/12/06 01:49:23;;;;;;;0.57;0.40;;;18.80;49.10;;;;;;8363493;28;20033;-50
2023/12/06 01:53:23;;;;;;;1.63;0.63;;;18.70;49.00;;;;;;8363374;28;20033;-53
2023/12/06 01:57:26;;;;;;;0.50;0.30;;;18.70;49.00;;;;;;8363150;28;20037;-52
2023/12/06 02:01:28;;;;;;;0.40;0.40;;;18.70;49.00;;;;;;8363138;28;20043;-52
2023/12/06 02:05:28;;;;;;;;;;;18.70;49.10;;;;;;8363509;28;20116;-52
2023/12/06 02:09:29;;;;;;;1.40;0.40;;;18.70;49.00;;;;;;8362799;28;19935;-51
2023/12/06 02:13:30;;;;;;;0.40;0.30;;;18.70;49.10;;;;;;8362910;28;20033;-52
2023/12/06 02:17:32;;;;;;;0.70;0.50;;;18.70;49.10;;;;;;8362765;28;20091;-53
2023/12/06 02:21:32;;;;;;;0.52;0.35;;;18.70;49.00;;;;;;8362424;28;20041;-54
2023/12/06 02:25:33;;;;;;;0.30;0.30;;;18.70;49.10;;;;;;8362575;28;20163;-53
2023/12/06 02:29:35;;;;;;;0.73;0.30;;;18.70;49.10;;;;;;8362132;28;20037;-54
2023/12/06 02:33:38;;;;;;;0.40;0.40;;;18.70;49.10;;;;;;8362053;28;20479;-54
2023/12/06 02:37:41;;;;;;;0.40;0.40;;;18.70;49.20;;;;;;8361826;28;20498;-53
2023/12/06 02:41:42;;;;;;;0.95;0.52;;;18.70;49.20;;;;;;8361631;28;20048;-53
2023/12/06 02:45:43;;;;;;;0.70;0.40;;;18.60;49.20;;;;;;8361504;28;20037;-51
2023/12/06 02:49:43;;;;;;;;;;;18.60;49.20;;;;;;8362174;28;20033;-54
2023/12/06 02:53:44;;;;;;;0.30;0.30;;;18.70;49.20;;;;;;8360618;28;19909;-53
2023/12/06 02:57:45;;;;;;;0.63;0.30;;;18.60;49.20;;;;;;8361076;28;20033;-54
2023/12/06 03:01:47;;;;;;;0.50;0.50;;;18.60;49.20;;;;;;8360933;28;20041;-53
2023/12/06 03:05:48;;;;;;;0.38;0.38;;;18.60;49.20;;;;;;8360602;28;20032;-54
2023/12/06 03:09:49;;;;;;;0.20;0.20;;;18.60;49.20;;;;;;8359901;28;20029;-54
2023/12/06 03:13:50;;;;;;;0.65;0.47;;;18.60;49.20;;;;;;8360986;28;20119;-53
2023/12/06 03:17:50;;;;;;;0.32;0.30;;;18.60;49.20;;;;;;8360474;28;20037;-54
2023/12/06 03:21:51;;;;;;;0.60;0.40;;;18.60;49.20;;;;;;8360539;28;20042;-53
2023/12/06 03:25:52;;;;;;;0.40;0.40;;;18.60;49.30;;;;;;8360555;28;20036;-53
2023/12/06 03:29:53;;;;;;;0.70;0.40;;;18.60;49.20;;;;;;8360422;28;20437;-53
2023/12/06 03:33:53;;;;;;;0.40;0.40;;;18.60;49.20;;;;;;8360271;28;20033;-53
2023/12/06 03:37:54;;;;;;;0.30;0.30;;;18.60;49.30;;;;;;8360148;28;20041;-52
2023/12/06 03:41:55;;;;;;;0.40;0.40;;;18.60;49.30;;;;;;8360133;28;20063;-50
2023/12/06 03:45:55;;;;;;;0.40;0.40;;;18.60;49.30;;;;;;8360057;28;20283;-50
2023/12/06 03:49:56;;;;;;;0.32;0.32;;;18.60;49.30;;;;;;8358664;28;20040;-49
2023/12/06 03:53:57;;;;;;;2.00;1.20;;;18.50;49.30;;;;;;8359818;28;20040;-51
2023/12/06 03:57:57;;;;;;;0.40;0.40;;;18.60;49.30;;;;;;8359906;28;20069;-50
2023/12/06 04:01:58;;;;;;;0.50;0.50;;;18.60;49.30;;;;;;8359712;28;20403;-52
2023/12/06 04:05:59;;;;;;;0.30;0.30;;;18.60;49.30;;;;;;8363299;28;20052;-50
2023/12/06 04:09:59;;;;;;;0.30;0.30;;;18.50;49.30;;;;;;8366763;28;20033;-50
2023/12/06 04:14:00;;;;;;;0.60;0.35;;;18.60;49.30;;;;;;8366726;28;20016;-52
2023/12/06 04:18:01;;;;;;;0.75;0.50;;;18.50;49.30;;;;;;8366387;28;20037;-51
2023/12/06 04:22:02;;;;;;;0.38;0.38;;;18.50;49.30;;;;;;8366324;28;20033;-52
2023/12/06 04:26:03;;;;;;;0.20;0.20;;;18.50;49.30;;;;;;8364684;28;20111;-51
2023/12/06 04:30:04;;;;;;;0.40;0.40;;;18.60;49.30;;;;;;8366206;28;20028;-51
2023/12/06 04:34:05;;;;;;;0.38;0.30;;;18.50;49.30;;;;;;8365868;28;20029;-52
2023/12/06 04:38:06;;;;;;;0.40;0.40;;;18.50;49.30;;;;;;8365946;28;20036;-52
2023/12/06 04:42:07;;;;;;;0.68;0.40;;;18.50;49.30;;;;;;8365765;28;20046;-50
2023/12/06 04:46:08;;;;;;;0.63;0.63;;;18.50;49.30;;;;;;8365476;28;20037;-52
2023/12/06 04:50:09;;;;;;;;;;;18.50;49.30;;;;;;8366160;28;20100;-52
2023/12/06 04:54:10;;;;;;;0.30;0.30;;;18.50;49.30;;;;;;8365348;28;19905;-52
2023/12/06 04:58:11;;;;;;;0.43;0.30;;;18.50;49.30;;;;;;8365969;28;20053;-52
2023/12/06 05:02:11;;;;;;;0.40;0.40;;;18.50;49.30;;;;;;8365034;28;20033;-52
2023/12/06 05:06:12;;;;;;;0.43;0.43;;;18.50;49.30;;;;;;8364566;28;20136;-52
2023/12/06 05:10:13;;;;;;;0.30;0.30;;;18.50;49.30;;;;;;8364873;28;20041;-53
2023/12/06 05:14:13;;;;;;;0.75;0.35;;;18.50;49.30;;;;;;8364448;28;20033;-53
2023/12/06 05:18:14;;;;;;;0.30;0.30;;;18.50;49.30;;;;;;8364085;28;20032;-53
2023/12/06 05:22:15;;;;;;;0.30;0.30;;;18.50;49.30;;;;;;8364320;28;20055;-53
2023/12/06 05:26:15;;;;;;;0.50;0.40;;;18.60;49.30;;;;;;8365184;28;20401;-52
2023/12/06 05:30:16;;;;;;;0.57;0.40;;;18.60;49.20;;;;;;8364030;28;20037;-51
2023/12/06 05:34:19;;;;;;;0.40;0.40;;;18.70;49.00;;;;;;8364109;28;20037;-52
2023/12/06 05:38:20;;;;;;;0.95;0.40;;;18.70;48.90;;;;;;8363650;28;20061;-52
2023/12/06 05:42:20;;;;;;;0.40;0.40;;;18.70;48.70;;;;;;8363941;28;20078;-52
2023/12/06 05:46:21;;;;;;;0.43;0.40;;;18.80;48.70;;;;;;8362326;28;20033;-52
2023/12/06 05:50:22;;;;;;;0.30;0.30;;;18.80;48.70;;;;;;8363543;28;20029;-51
2023/12/06 05:54:23;;;;;;;;;;;18.80;48.70;;;;;;8364570;28;20139;-51
2023/12/06 05:58:24;;;;;;;0.30;0.30;;;18.80;48.70;;;;;;8363159;28;19909;-52
2023/12/06 06:02:24;;;;;;;0.45;0.30;;;18.80;48.70;;;;;;8363084;28;20044;-53
2023/12/06 06:06:25;;;;;;;0.40;0.40;;;18.80;48.60;;;;;;8362864;28;20053;-53
2023/12/06 06:10:26;;;;;;;0.40;0.40;;;18.80;48.70;;;;;;8362741;28;20033;-53
2023/12/06 06:14:26;;;;;;;0.65;0.50;;;18.80;48.70;;;;;;8362690;28;20029;-54
2023/12/06 06:18:27;;;;;;;0.50;0.50;;;18.80;48.60;;;;;;8361284;28;20029;-52
2023/12/06 06:22:28;;;;;;;0.40;0.40;;;18.80;48.70;;;;;;8362259;28;20445;-51
2023/12/06 06:26:28;;;;;;;0.35;0.30;;;18.80;48.60;;;;;;8360930;28;20029;-49
2023/12/06 06:30:29;;;;;;;0.40;0.40;;;18.80;48.60;;;;;;8361079;28;20037;-52
2023/12/06 06:34:30;;;;;;;0.47;0.30;;;18.80;48.60;;;;;;8361914;28;20386;-51
2023/12/06 06:38:30;;;;;;;0.40;0.40;;;18.80;48.60;;;;;;8361708;28;20505;-51
2023/12/06 06:42:31;;;;;;;0.47;0.47;;;18.80;48.60;;;;;;8361803;28;20041;-52
2023/12/06 06:46:32;;;;;;;0.30;0.30;;;18.80;48.60;;;;;;8361725;28;20541;-52
2023/12/06 06:50:33;;;;;;;0.40;0.40;;;18.80;48.50;;;;;;8361637;28;20032;-52
2023/12/06 06:54:34;;;;;;;;;;;18.80;48.50;;;;;;8361871;28;20040;-50
2023/12/06 06:58:34;;;;;;;0.30;0.30;;;18.80;48.50;;;;;;8361365;28;19987;-51
2023/12/06 07:02:35;;;;;;;0.40;0.30;;;18.80;48.60;;;;;;8361232;28;20394;-52
2023/12/06 07:06:36;;;;;;;0.45;0.22;;;18.80;48.50;;;;;;8361080;28;20049;-52
2023/12/06 07:10:38;;;;;;;0.35;0.30;;;18.80;48.50;;;;;;8361022;28;20033;-53
2023/12/06 07:14:39;;;;;;;0.35;0.35;;;18.80;48.50;;;;;;8361002;28;20090;-53
2023/12/06 07:18:40;;;;;;;1.52;0.35;;;18.80;48.50;;;;;;8361045;28;20112;-50
2023/12/06 07:22:41;;;;;;;0.40;0.40;;;18.80;48.50;;;;;;8361139;28;20120;-52
2023/12/06 07:26:42;;;;;;;0.32;0.32;;;18.80;48.50;;;;;;8360504;28;20462;-52
2023/12/06 07:30:42;;;;;;;;;;;18.80;48.50;;;;;;8360766;28;20134;-50
2023/12/06 07:34:43;;;;;;;0.40;0.40;;;18.80;48.50;;;;;;8360480;28;19912;-50
2023/12/06 07:38:44;;;;;;;0.30;0.30;;;18.80;48.60;;;;;;8359918;28;20114;-51
2023/12/06 07:42:45;;;;;;;0.40;0.40;;;18.80;48.50;;;;;;8359877;28;20033;-51
2023/12/06 07:46:45;;;;;;;0.30;0.30;;;18.80;48.60;;;;;;8360211;28;20483;-53
2023/12/06 07:50:46;;;;;;;0.47;0.47;;;18.90;48.60;;;;;;8358607;28;20028;-52
2023/12/06 07:54:47;;;;;;;0.43;0.30;;;18.80;48.50;;;;;;8359820;28;20037;-52
2023/12/06 07:58:47;;;;;;;0.88;0.30;;;18.90;48.60;;;;;;8359740;28;20044;-51
2023/12/06 08:02:48;;;;;;;0.40;0.40;;;18.90;48.60;;;;;;8359574;28;20102;-51
2023/12/06 08:06:49;;;;;;;0.28;0.28;;;18.90;48.60;;;;;;8360527;28;20053;-52
2023/12/06 08:10:50;;;;;;;0.40;0.40;;;18.90;48.60;;;;;;8359730;28;20483;-52
2023/12/06 08:14:50;;;;;;;0.30;0.30;;;18.90;48.60;;;;;;8359336;28;20478;-51
2023/12/06 08:18:51;;;;;;;0.30;0.30;;;18.90;48.60;;;;;;8359692;28;20047;-51
2023/12/06 08:22:52;;;;;;;0.30;0.30;;;18.90;48.60;;;;;;8359481;28;20047;-51
2023/12/06 08:26:52;;;;;;;0.30;0.30;;;18.90;48.50;;;;;;8359514;28;20041;-51
2023/12/06 08:30:53;;;;;;;0.30;0.30;;;18.90;48.60;;;;;;8359410;28;20436;-52
2023/12/06 08:34:54;;;;;;;0.30;0.30;;;18.80;48.50;;;;;;8359168;28;20040;-52
2023/12/06 08:38:55;;;;;;;0.52;0.32;;;18.90;48.60;;;;;;8358929;28;20086;-51
2023/12/06 08:42:55;;;;;;;0.38;0.38;;;18.90;48.60;;;;;;8358995;28;20501;-53
2023/12/06 08:46:57;;;;;;;0.50;0.50;;;18.80;48.50;;;;;;8359178;28;20025;-52
2023/12/06 08:50:57;;;;;;;0.30;0.30;;;18.80;48.50;;;;;;8358993;28;20087;-53
2023/12/06 08:54:58;;;;;;;0.30;0.30;;;18.80;48.50;;;;;;8365389;28;20029;-51
2023/12/06 08:58:59;;;;;;;3.38;0.32;;;18.90;48.60;;;;;;8364960;28;20036;-52
2023/12/06 09:03:01;;;;;;;0.22;0.22;;;18.90;48.60;;;;;;8365205;28;20037;-52
2023/12/06 09:07:02;;;;;;;0.60;0.60;;;18.90;48.60;;;;;;8364723;28;20041;-53
2023/12/06 09:11:03;;;;;;;0.47;0.47;;;18.80;48.50;;;;;;8364583;28;20104;-52
2023/12/06 09:15:04;;;;;;;0.35;0.35;;;18.90;48.60;;;;;;8364852;28;20037;-51
2023/12/06 09:19:05;;;;;;;;;;;18.90;49.10;;;;;;8365050;28;20048;-52
2023/12/06 09:23:06;;;;;;;0.30;0.30;;;18.90;48.60;;;;;;8364186;28;19948;-52
2023/12/06 09:27:07;;;;;;;0.38;0.30;;;18.90;48.60;;;;;;8364131;28;20025;-52
2023/12/06 09:31:07;;;;;;;0.30;0.30;;;18.90;48.60;;;;;;8364271;28;20052;-51
2023/12/06 09:35:08;;;;;;;0.30;0.30;;;18.90;48.60;;;;;;8364133;28;20075;-52
2023/12/06 09:39:09;;;;;;;0.52;0.30;;;18.90;48.60;;;;;;8363632;28;20045;-52
2023/12/06 09:43:11;;;;;;;0.32;0.32;;;18.90;48.60;;;;;;8364108;28;20033;-52
2023/12/06 09:47:12;;;;;;;1.13;0.55;;;18.90;48.60;;;;;;8364320;28;20483;-53
2023/12/06 09:51:13;;;;;;;0.47;0.47;;;18.90;48.60;;;;;;8363430;28;20043;-53
2023/12/06 09:55:15;;;;;;;0.38;0.38;;;18.90;48.60;;;;;;8362263;28;20481;-53
2023/12/06 09:59:23;;;;;;;0.30;0.30;;;18.90;48.60;;;;;;8363858;28;20061;-54
2023/12/06 10:03:27;;;;;;;0.60;0.40;;;18.90;48.60;;;;;;8363296;28;20064;-54
2023/12/06 10:07:34;;;;;;;0.40;0.30;;;18.90;48.60;;;;;;8363014;28;20087;-53
2023/12/06 10:11:35;;;;;;;0.40;0.40;;;18.90;48.60;;;;;;8362654;28;20025;-54
2023/12/06 10:15:42;;;;;;;0.30;0.30;;;18.90;48.60;;;;;;8362748;28;20128;-54
2023/12/06 10:19:44;;;;;;;0.30;0.30;;;18.90;48.60;;;;;;8362751;28;20067;-52
2023/12/06 10:23:57;;;;;;;0.30;0.30;;;18.90;48.60;;;;;;8362433;28;20068;-53
2023/12/06 10:28:01;;;;;;;0.30;0.30;;;18.90;48.60;;;;;;8360963;28;20033;-53
2023/12/06 10:32:02;;;;;;;0.52;0.30;;;18.90;48.60;;;;;;8362176;28;20029;-54
2023/12/06 10:36:04;;;;;;;0.30;0.30;;;18.80;48.60;;;;;;8362117;28;20067;-53
2023/12/06 10:40:11;;;;;;;0.30;0.30;;;18.80;48.70;;;;;;8360764;28;20048;-53
2023/12/06 10:44:12;;;;;;;0.40;0.40;;;18.80;48.70;;;;;;8360915;28;20036;-53
2023/12/06 10:48:15;;;;;;;0.30;0.30;;;18.80;48.70;;;;;;8361720;28;20025;-53
2023/12/06 10:52:18;;;;;;;0.30;0.30;;;18.80;48.70;;;;;;8361552;28;20037;-54
2023/12/06 10:56:19;;;;;;;0.20;0.20;;;18.80;48.70;;;;;;8361930;28;20540;-52
2023/12/06 11:00:21;;;;;;;;;;;18.80;48.70;;;;;;8362055;28;20402;-52
2023/12/06 11:04:25;;;;;;;0.30;0.30;;;18.90;48.70;;;;;;8361093;28;19920;-52
2023/12/06 11:09:04;;;;;;;0.32;0.32;;;18.80;48.70;;;;;;8360987;28;20068;-53
2023/12/06 11:13:41;;;;;;;0.40;0.38;;;18.80;48.70;;;;;;8359752;28;20048;-52
2023/12/06 11:18:18;;;;;;;0.30;0.30;;;18.80;48.70;;;;;;8360529;28;20029;-53
2023/12/06 11:22:22;;;;;;;0.30;0.30;;;18.80;48.70;;;;;;8359404;28;20038;-53
2023/12/06 11:26:23;;;;;;;0.30;0.30;;;18.80;48.70;;;;;;8360416;28;20029;-52
2023/12/06 11:30:24;;;;;;;0.30;0.30;;;18.80;48.70;;;;;;8360454;28;20087;-53
2023/12/06 11:34:40;;;;;;;0.30;0.30;;;18.80;48.70;;;;;;8360377;28;20033;-52
2023/12/06 11:38:42;;;;;;;0.30;0.30;;;18.80;48.70;;;;;;8360244;28;20435;-52
2023/12/06 11:42:52;;;;;;;0.40;0.40;;;18.80;48.70;;;;;;8360966;28;20037;-51
2023/12/06 11:46:55;;;;;;;0.43;0.30;;;18.80;48.70;;;;;;8360100;28;20090;-52
2023/12/06 11:50:59;;;;;;;0.52;0.35;;;18.80;48.70;;;;;;8359875;28;20043;-52
2023/12/06 11:55:00;;;;;;;0.30;0.30;;;18.90;48.80;;;;;;8359978;28;20083;-53
2023/12/06 11:59:02;;;;;;;0.30;0.30;;;18.80;48.70;;;;;;8359584;28;20033;-52
2023/12/06 12:03:04;;;;;;;0.30;0.30;;;18.80;48.70;;;;;;8359587;28;20037;-52
2023/12/06 12:07:04;;;;;;;0.40;0.40;;;18.80;48.70;;;;;;8359465;28;20457;-52
2023/12/06 12:11:07;;;;;;;0.47;0.40;;;18.80;48.70;;;;;;8359631;28;20029;-51
2023/12/06 12:15:12;;;;;;;0.30;0.30;;;18.80;48.70;;;;;;8359674;28;20445;-50
2023/12/06 12:19:13;;;;;;;0.25;0.25;;;18.80;49.20;;;;;;8357956;28;20386;-50
2023/12/06 12:23:14;;;;;;;0.25;0.25;;;18.80;48.70;;;;;;8358758;28;20090;-51
2023/12/06 12:27:18;;;;;;;0.35;0.35;;;18.80;48.70;;;;;;8361490;28;20064;-53
2023/12/06 12:31:23;;;;;;;0.32;0.28;;;18.90;48.80;;;;;;8366841;28;20083;-51
2023/12/06 12:35:24;;;;;;;0.30;0.30;;;18.90;48.80;;;;;;8365858;28;20040;-51
2023/12/06 12:39:25;;;;;;;0.30;0.30;;;18.90;48.80;;;;;;8365934;28;20033;-52
2023/12/06 12:43:25;;;;;;;0.30;0.30;;;18.80;48.70;;;;;;8365482;28;20048;-52
2023/12/06 12:47:26;;;;;;;0.52;0.45;;;18.80;48.70;;;;;;8365325;28;20546;-52
2023/12/06 12:51:27;;;;;;;0.50;0.50;;;18.80;48.70;;;;;;8365425;28;20082;-50
2023/12/06 12:55:28;;;;;;;0.47;0.40;;;18.80;48.70;;;;;;8365275;28;20063;-52
2023/12/06 12:59:32;;;;;;;0.32;0.32;;;18.90;48.80;;;;;;8364892;28;20577;-49
2023/12/06 13:03:33;;;;;;;0.65;0.30;;;18.90;48.80;;;;;;8364843;28;20120;-51
2023/12/06 13:07:34;;;;;;;0.30;0.30;;;18.80;48.70;;;;;;8364573;28;20468;-50
2023/12/06 13:11:35;;;;;;;0.40;0.40;;;18.90;48.80;;;;;;8364886;28;20068;-52
2023/12/06 13:15:36;;;;;;;1.20;0.43;;;18.90;48.80;;;;;;8364730;28;20430;-51
2023/12/06 13:19:37;;;;;;;0.40;0.20;;;18.90;48.80;;;;;;8364624;28;20101;-54
2023/12/06 13:23:37;;;;;;;0.40;0.40;;;18.90;48.80;;;;;;8364219;28;20048;-54
2023/12/06 13:27:38;;;;;;;0.20;0.20;;;18.90;48.80;;;;;;8364318;28;20036;-54
2023/12/06 13:31:39;;;;;;;0.30;0.30;;;18.90;48.80;;;;;;8364042;28;20537;-53
2023/12/06 13:35:39;;;;;;;0.40;0.40;;;18.90;48.80;;;;;;8363993;28;20041;-54
2023/12/06 13:39:45;;;;;;;0.35;0.35;;;18.90;48.80;;;;;;8363500;28;20666;-54
2023/12/06 13:43:45;;;;;;;0.20;0.20;;;18.90;48.80;;;;;;8363633;28;20120;-52
2023/12/06 13:47:46;;;;;;;1.13;0.40;;;18.90;48.80;;;;;;8363790;28;20040;-53
2023/12/06 13:51:47;;;;;;;3.40;0.40;;;18.90;48.80;;;;;;8356296;28;20364;-49
2023/12/06 13:55:47;;;;;;;0.25;0.25;;;18.90;49.20;;;;;;8345426;28;20044;-49
2023/12/06 13:59:48;;;;;;;1.38;0.40;;;19.10;49.30;;;;;;8356851;28;20034;-50
2023/12/06 14:03:55;;;;;;;0.50;0.50;;;19.10;49.30;;;;;;8330749;28;20037;-52
2023/12/06 14:07:55;;;;;;;1.35;0.52;;;19.10;49.40;;;;;;8329677;28;20045;-48
2023/12/06 14:11:56;;;;;;;0.50;0.50;;;19.20;49.30;;;;;;8328843;28;20030;-52
2023/12/06 14:15:57;;;;;;;0.50;0.50;;;19.20;49.30;;;;;;8329961;28;20041;-48
2023/12/06 14:19:58;;;;;;;5.93;0.60;;;19.20;49.40;;;;;;8329885;28;20084;-50
2023/12/06 14:23:59;;;;;;;1.48;0.55;;;19.20;49.20;;;;;;8350633;28;20041;-52
2023/12/06 14:27:59;;;;;;;7.22;0.80;;;19.20;49.00;;;;;;8363135;28;20025;-46
2023/12/06 14:32:00;;;;;;;0.50;0.50;;;19.10;49.10;;;;;;8362470;28;20037;-46
2023/12/06 14:36:01;;;;;;;0.82;0.40;;;19.10;49.10;;;;;;8361045;28;20404;-47
2023/12/06 14:40:03;;;;;;;0.50;0.50;;;19.10;49.20;;;;;;8361718;28;20057;-47
2023/12/06 14:44:04;;;;;;;1.05;0.60;;;19.10;49.20;;;;;;8360630;28;20033;-47
2023/12/06 14:48:05;;;;;;;0.85;0.38;;;19.10;49.20;;;;;;8362007;28;20040;-50
2023/12/06 14:52:05;;;;;;;0.52;0.52;;;19.00;49.20;;;;;;8349590;28;20530;-48
2023/12/06 14:56:07;;;;;;;2.00;0.70;;;19.10;49.30;;;;;;8333999;28;20025;-46
2023/12/06 15:00:09;;;;;;;0.85;0.50;;;19.10;49.30;;;;;;8361298;28;20068;-47
2023/12/06 15:04:10;;;;;;;1.45;0.50;;;19.00;49.30;;;;;;8361346;28;20029;-49
2023/12/06 15:08:11;;;;;;;0.50;0.50;;;19.10;49.40;;;;;;8360898;28;20081;-47
2023/12/06 15:12:11;;;;;;;0.40;0.40;;;19.10;49.40;;;;;;8361061;28;20496;-47
2023/12/06 15:16:12;;;;;;;1.75;0.50;;;19.10;49.60;;;;;;8361174;28;20033;-48
2023/12/06 15:20:13;;;;;;;0.95;0.60;;;19.10;49.60;;;;;;8360898;28;20036;-49
2023/12/06 15:24:14;;;;;;;0.75;0.60;;;19.10;49.70;;;;;;8360603;28;20041;-47
2023/12/06 15:28:15;;;;;;;0.75;0.50;;;19.10;49.40;;;;;;8354485;28;20447;-49
2023/12/06 15:32:16;;;;;;;0.50;0.50;;;19.10;49.60;;;;;;8360659;28;20076;-48
2023/12/06 15:36:17;;;;;;;0.60;0.60;;;19.20;49.60;;;;;;8329393;28;20078;-48
2023/12/06 15:40:18;;;;;;;0.60;0.52;;;19.20;49.40;;;;;;8327551;28;20072;-50
2023/12/06 15:44:19;;;;;;;1.85;0.52;;;19.20;49.50;;;;;;8327544;28;20471;-53
2023/12/06 15:48:20;;;;;;;;;;;19.10;49.40;;;;;;8327708;28;20698;-54
2023/12/06 15:52:21;;;;;;;1.50;1.17;;;19.10;49.30;;;;;;8327160;28;19932;-54
2023/12/06 15:56:21;;;;;;;6.88;2.22;;;19.10;49.80;;;;;;8332572;28;20060;-53
2023/12/06 16:00:22;;;;;;;11.70;2.53;;;19.20;52.50;;;;;;8359754;28;20037;-54
2023/12/06 16:04:23;;;;;;;7.80;1.85;;;19.20;52.50;;;;;;8358653;28;20033;-51
2023/12/06 16:08:24;;;;;;;4.40;1.80;;;19.10;51.80;;;;;;8359601;28;20075;-52
2023/12/06 16:12:25;;;;;;;4.40;1.33;;;19.10;51.60;;;;;;8359486;28;20033;-53
2023/12/06 16:16:25;;;;;;;4.28;1.23;;;19.10;51.40;;;;;;8359660;28;20482;-53
2023/12/06 16:20:31;;;;;;;4.60;1.55;;;19.10;51.30;;;;;;8358576;28;20063;-54
2023/12/06 16:24:34;;;;;;;5.10;1.40;;;19.10;51.20;;;;;;8359413;28;20044;-53
2023/12/06 16:28:35;;;;;;;4.65;1.60;;;19.00;51.20;;;;;;8357961;28;20029;-50
2023/12/06 16:32:38;;;;;;;3.00;1.30;;;19.10;50.80;;;;;;8359510;28;20078;-54
2023/12/06 16:36:40;;;;;;;4.45;1.27;;;19.00;50.60;;;;;;8357876;28;20033;-53
2023/12/06 16:40:43;;;;;;;2.63;1.25;;;19.10;50.50;;;;;;8357737;28;20056;-52
2023/12/06 16:44:45;;;;;;;2.90;1.58;;;19.10;50.40;;;;;;8359420;28;20030;-51
2023/12/06 16:48:46;;;;;;;4.65;1.38;;;19.10;50.30;;;;;;8359795;28;20025;-50
2023/12/06 16:52:49;;;;;;;3.67;1.60;;;19.10;50.40;;;;;;8359659;28;20079;-48
2023/12/06 16:56:50;;;;;;;2.25;1.00;;;19.00;50.20;;;;;;8359344;28;20103;-49
2023/12/06 17:00:52;;;;;;;4.72;1.35;;;19.10;50.10;;;;;;8358817;28;20077;-49
2023/12/06 17:04:53;;;;;;;2.63;1.40;;;19.10;50.00;;;;;;8359232;28;20087;-48
2023/12/06 17:08:53;;;;;;;2.50;1.20;;;19.10;50.00;;;;;;8358330;28;20053;-50
2023/12/06 17:12:54;;;;;;;5.30;1.42;;;19.00;50.00;;;;;;8359901;28;20486;-48
2023/12/06 17:16:55;;;;;;;2.58;1.30;;;19.00;49.90;;;;;;8364534;28;20037;-48
2023/12/06 17:20:56;;;;;;;3.33;1.35;;;19.00;49.90;;;;;;8364284;28;20025;-49
2023/12/06 17:24:57;;;;;;;2.40;1.55;;;19.00;49.90;;;;;;8364203;28;20032;-50
2023/12/06 17:28:57;;;;;;;3.35;1.48;;;19.00;49.90;;;;;;8364058;28;20039;-50
2023/12/06 17:32:58;;;;;;;2.67;1.50;;;19.00;49.80;;;;;;8364087;28;20041;-49
2023/12/06 17:36:59;;;;;;;1.50;0.90;;;19.00;49.80;;;;;;8363792;28;20037;-49
2023/12/06 17:40:59;;;;;;;3.83;1.30;;;19.00;49.80;;;;;;8363626;28;20078;-51
2023/12/06 17:45:00;;;;;;;4.18;1.42;;;19.00;49.80;;;;;;8363653;28;20029;-49
2023/12/06 17:49:01;;;;;;;3.70;1.10;;;19.00;49.80;;;;;;8363650;28;20470;-52
2023/12/06 17:53:01;;;;;;;3.13;1.38;;;19.00;49.70;;;;;;8363356;28;20043;-49
2023/12/06 17:57:02;;;;;;;3.90;1.40;;;19.00;49.70;;;;;;8363173;28;20037;-49
2023/12/06 18:01:03;;;;;;;4.10;1.33;;;19.00;49.70;;;;;;8363129;28;20036;-49
2023/12/06 18:05:05;;;;;;;3.30;1.30;;;19.00;49.70;;;;;;8363023;28;20064;-49
2023/12/06 18:09:05;;;;;;;2.83;1.23;;;18.90;50.20;;;;;;8362682;28;20049;-50
2023/12/06 18:13:07;;;;;;;3.08;1.10;;;18.90;49.70;;;;;;8362816;28;20045;-48
2023/12/06 18:17:08;;;;;;;3.47;1.40;;;19.00;49.80;;;;;;8362851;28;20473;-49
2023/12/06 18:21:09;;;;;;;1.55;1.02;;;18.90;49.70;;;;;;8362519;28;20036;-48
2023/12/06 18:25:10;;;;;;;1.95;1.33;;;18.90;49.70;;;;;;8362587;28;20030;-48
2023/12/06 18:29:11;;;;;;;;;;;18.90;49.70;;;;;;8362799;28;20086;-48
2023/12/06 18:33:11;;;;;;;2.27;1.33;;;18.90;49.60;;;;;;8362357;28;19909;-49
2023/12/06 18:37:12;;;;;;;2.50;1.30;;;18.90;49.60;;;;;;8362083;28;20029;-52
2023/12/06 18:41:13;;;;;;;2.58;1.20;;;18.90;49.60;;;;;;8360699;28;20037;-50
2023/12/06 18:45:19;;;;;;;2.72;1.05;;;18.90;49.50;;;;;;8362253;28;20394;-50
2023/12/06 18:49:19;;;;;;;2.08;1.40;;;19.00;49.60;;;;;;8362145;28;20033;-49
2023/12/06 18:53:21;;;;;;;1.75;1.20;;;18.90;49.50;;;;;;8360904;28;20124;-50
2023/12/06 18:57:21;;;;;;;1.92;0.95;;;18.90;49.50;;;;;;8361346;28;20033;-50
2023/12/06 19:01:22;;;;;;;3.28;1.38;;;19.00;49.50;;;;;;8361171;28;20433;-51
2023/12/06 19:05:25;;;;;;;3.38;1.27;;;19.00;49.50;;;;;;8361111;28;20395;-49
2023/12/06 19:09:26;;;;;;;2.55;1.20;;;19.00;49.50;;;;;;8360911;28;20079;-53
2023/12/06 19:13:27;;;;;;;3.03;1.48;;;19.00;49.40;;;;;;8361009;28;20111;-54
2023/12/06 19:17:27;;;;;;;3.28;1.40;;;18.90;49.40;;;;;;8360861;28;20612;-51
2023/12/06 19:21:29;;;;;;;2.80;0.90;;;18.90;49.40;;;;;;8360898;28;20047;-53
2023/12/06 19:25:30;;;;;;;2.78;1.27;;;18.90;49.40;;;;;;8360566;28;20037;-53
2023/12/06 19:29:32;;;;;;;1.65;1.17;;;18.90;49.40;;;;;;8359798;28;20108;-53
2023/12/06 19:33:36;;;;;;;1.45;0.90;;;18.90;49.40;;;;;;8360339;28;20037;-54
2023/12/06 19:37:37;;;;;;;1.50;1.10;;;18.90;49.40;;;;;;8359741;28;20048;-52
2023/12/06 19:41:38;;;;;;;2.03;1.35;;;18.90;49.40;;;;;;8360241;28;20086;-53
2023/12/06 19:45:39;;;;;;;1.98;1.23;;;18.90;49.40;;;;;;8360392;28;20120;-53
2023/12/06 19:49:39;;;;;;;2.45;1.17;;;18.90;49.40;;;;;;8360061;28;20047;-53
2023/12/06 19:53:40;;;;;;;2.00;1.15;;;18.90;49.40;;;;;;8360056;28;20116;-52
2023/12/06 19:57:41;;;;;;;3.42;1.50;;;18.90;49.30;;;;;;8360126;28;20119;-52
2023/12/06 20:01:41;;;;;;;1.60;1.13;;;18.90;49.30;;;;;;8359855;28;20467;-53
2023/12/06 20:05:42;;;;;;;1.85;1.00;;;18.90;49.20;;;;;;8359528;28;20048;-51
2023/12/06 20:09:43;;;;;;;1.48;1.00;;;18.90;49.20;;;;;;8359657;28;20041;-52
2023/12/06 20:13:44;;;;;;;1.08;0.90;;;18.90;49.30;;;;;;8359713;28;20505;-51
2023/12/06 20:17:44;;;;;;;1.45;1.30;;;18.90;49.20;;;;;;8359450;28;20033;-52
2023/12/06 20:21:46;;;;;;;2.90;1.30;;;18.90;49.20;;;;;;8359309;28;20029;-49
2023/12/06 20:25:47;;;;;;;2.55;1.25;;;18.90;49.20;;;;;;8359404;28;20041;-49
2023/12/06 20:29:47;;;;;;;1.52;1.05;;;18.90;49.20;;;;;;8359390;28;20548;-49
2023/12/06 20:33:49;;;;;;;1.40;0.80;;;18.90;49.20;;;;;;8359255;28;20068;-49
2023/12/06 20:37:49;;;;;;;1.30;1.10;;;18.90;49.20;;;;;;8359209;28;20041;-50
2023/12/06 20:41:50;;;;;;;3.67;1.38;;;18.90;49.30;;;;;;8359115;28;20044;-49
2023/12/06 20:45:51;;;;;;;1.40;1.17;;;18.90;49.30;;;;;;8358920;28;20041;-51
2023/12/06 20:49:52;;;;;;;2.30;1.13;;;18.80;49.30;;;;;;8364009;28;20478;-51
2023/12/06 20:53:54;;;;;;;2.17;1.35;;;18.80;49.30;;;;;;8365539;28;20558;-49
2023/12/06 20:57:59;;;;;;;1.50;1.00;;;18.80;49.40;;;;;;8365399;28;20041;-49
2023/12/06 21:02:00;;;;;;;2.65;1.27;;;18.80;49.40;;;;;;8365126;28;20403;-51